Time;durP1;ratioP1;P1;durP2;ratioP2;P2;SDS_P1;SDS_P2;PMS_P1;PMS_P2;Temp;Humidity;BMP_temperature;BMP_pressure;BME280_temperature;BME280_humidity;BME280_pressure;Samples;Min_cycle;Max_cycle;Signal;HPM_P1;HPM_P2
2022/01/30 00:01:46;;;;;;;30.00;4.60;;;;;;;6.89;74.83;102141.19;5111358;28;20108;-64
2022/01/30 00:04:12;;;;;;;36.67;6.10;;;;;;;6.82;73.89;102139.00;5108655;28;20048;-64
2022/01/30 00:06:41;;;;;;;31.35;5.53;;;;;;;6.72;74.36;102139.56;5091795;28;20055;-64
2022/01/30 00:09:14;;;;;;;36.47;5.15;;;;;;;6.70;74.38;102138.00;5108670;28;20069;-64
2022/01/30 00:11:45;;;;;;;40.70;4.82;;;;;;;6.68;73.65;102143.34;5110029;28;20042;-64
2022/01/30 00:14:14;;;;;;;30.35;5.22;;;;;;;6.67;74.46;102140.81;5108321;28;20050;-64
2022/01/30 00:16:41;;;;;;;35.05;5.10;;;;;;;6.77;73.42;102149.00;5108545;28;20051;-64
2022/01/30 00:22:26;;;;;;;26.45;4.88;;;;;;;6.57;74.59;102151.09;5109302;28;20039;-65
2022/01/30 00:25:05;;;;;;;31.20;5.18;;;;;;;6.58;74.37;102154.56;5109202;28;20036;-64
2022/01/30 00:27:32;;;;;;;37.40;4.85;;;;;;;6.48;74.66;102160.38;5095873;28;20412;-64
2022/01/30 00:29:59;;;;;;;43.75;6.13;;;;;;;6.53;74.12;102155.69;5095030;28;20097;-64
2022/01/30 00:32:26;;;;;;;42.53;5.60;;;;;;;6.45;74.73;102157.09;5094027;28;20450;-64
2022/01/30 00:35:14;;;;;;;34.03;5.22;;;;;;;6.36;74.51;102162.91;5077221;28;20032;-64
2022/01/30 00:37:42;;;;;;;30.90;4.97;;;;;;;6.42;74.83;102160.78;5095673;28;20441;-63
2022/01/30 00:40:21;;;;;;;27.35;4.53;;;;;;;6.49;74.64;102167.38;5095531;28;20063;-64
2022/01/30 00:42:48;;;;;;;33.20;5.20;;;;;;;6.45;74.11;102165.00;5095868;28;20523;-64
2022/01/30 00:45:16;;;;;;;39.42;5.03;;;;;;;6.42;74.72;102173.09;5094808;28;20046;-64
2022/01/30 00:47:44;;;;;;;35.53;5.50;;;;;;;6.56;73.35;102174.91;5095574;28;20500;-64
2022/01/30 00:50:11;;;;;;;39.40;5.68;;;;;;;6.45;74.87;102186.09;5094507;28;20142;-64
2022/01/30 00:52:38;;;;;;;37.13;5.10;;;;;;;6.37;74.87;102185.69;5094272;28;20488;-64
2022/01/30 00:55:05;;;;;;;28.63;4.63;;;;;;;6.38;74.85;102180.31;5095410;28;20454;-64
2022/01/30 00:57:32;;;;;;;32.58;4.75;;;;;;;6.36;75.03;102186.63;5095208;28;20989;-64
2022/01/30 00:59:58;;;;;;;26.48;4.75;;;;;;;6.54;72.56;102175.81;5090657;28;20037;-64
2022/01/30 01:02:25;;;;;;;38.75;5.10;;;;;;;6.40;73.60;102181.06;5098655;28;20044;-64
2022/01/30 01:04:52;;;;;;;35.80;5.70;;;;;;;6.36;74.59;102184.84;5093639;28;20055;-64
2022/01/30 01:07:22;;;;;;;37.25;5.90;;;;;;;6.36;74.55;102181.38;5093608;28;20056;-64
2022/01/30 01:09:59;;;;;;;36.35;4.82;;;;;;;6.43;74.46;102188.81;5095744;28;20130;-64
2022/01/30 01:12:57;;;;;;;34.45;4.35;;;;;;;6.41;73.91;102192.50;5101656;28;20042;-64
2022/01/30 01:26:04;;;;;;;33.17;4.57;;;;;;;6.21;73.33;102193.66;5117570;27;20710;-65
2022/01/30 01:28:32;;;;;;;31.80;4.10;;;;;;;6.21;74.16;102191.03;5110501;28;20404;-63
2022/01/30 01:30:59;;;;;;;29.58;5.15;;;;;;;6.22;75.29;102182.16;5108518;28;20434;-63
2022/01/30 01:33:34;;;;;;;29.45;4.38;;;;;;;6.14;74.60;102194.00;5110679;28;20046;-63
2022/01/30 01:36:01;;;;;;;33.47;5.85;;;;;;;6.22;74.22;102187.44;5110127;28;20066;-65
2022/01/30 01:38:27;;;;;;;42.50;5.97;;;;;;;6.21;74.73;102188.41;5110172;28;20044;-62
2022/01/30 01:40:55;;;;;;;32.63;4.28;;;;;;;6.10;74.54;102187.22;5107633;28;20494;-63
2022/01/30 01:43:25;;;;;;;27.58;4.93;;;;;;;6.29;73.88;102194.06;5108796;28;20036;-63
2022/01/30 01:45:54;;;;;;;34.22;4.47;;;;;;;6.09;74.64;102193.47;5109117;28;20050;-65
2022/01/30 01:48:22;;;;;;;35.75;6.55;;;;;;;6.02;74.85;102191.25;5102476;28;20151;-65
2022/01/30 01:51:03;;;;;;;37.47;5.95;;;;;;;6.10;74.14;102194.28;5110482;28;20054;-65
2022/01/30 01:53:30;;;;;;;42.22;5.90;;;;;;;6.05;74.77;102186.66;5103762;28;20553;-64
2022/01/30 01:55:57;;;;;;;39.88;5.75;;;;;;;6.16;73.46;102178.13;5109973;28;20044;-64
2022/01/30 01:58:27;;;;;;;36.72;4.65;;;;;;;6.06;73.75;102176.97;5108676;28;20036;-64
2022/01/30 02:01:03;;;;;;;31.40;4.55;;;;;;;6.07;73.76;102174.22;5093404;28;20054;-63
2022/01/30 02:03:30;;;;;;;35.50;4.78;;;;;;;6.05;73.40;102175.28;5123930;28;20036;-63
2022/01/30 02:06:01;;;;;;;39.53;4.82;;;;;;;6.10;72.89;102179.31;5108097;28;20044;-63
2022/01/30 02:08:35;;;;;;;37.45;5.88;;;;;;;5.99;73.25;102184.38;5108583;28;20044;-63
2022/01/30 02:24:35;;;;;;;27.50;4.32;;;;;;;5.56;75.67;102208.69;5090163;28;20059;-65
2022/01/30 02:27:03;;;;;;;27.15;4.60;;;;;;;5.70;74.89;102210.56;5083687;28;20436;-65
2022/01/30 02:29:30;;;;;;;32.20;4.40;;;;;;;5.73;74.41;102206.88;5088600;28;20481;-65
2022/01/30 02:31:59;;;;;;;30.38;4.15;;;;;;;5.69;75.21;102205.38;5089104;28;20510;-65
2022/01/30 02:34:27;;;;;;;30.73;5.63;;;;;;;5.70;75.14;102214.97;5090133;28;20054;-64
2022/01/30 02:36:55;;;;;;;41.00;4.57;;;;;;;5.70;74.00;102210.56;5088127;28;20050;-65
2022/01/30 02:39:22;;;;;;;39.58;5.20;;;;;;;5.64;74.79;102221.44;5086119;28;20048;-65
2022/01/30 02:41:50;;;;;;;34.25;4.50;;;;;;;5.63;75.62;102230.25;5089989;28;20123;-65
2022/01/30 02:44:39;;;;;;;35.70;5.03;;;;;;;5.51;74.97;102233.56;5089850;28;20040;-62
2022/01/30 02:47:20;;;;;;;29.48;4.95;;;;;;;5.55;75.66;102246.50;5089574;28;20051;-63
2022/01/30 02:50:32;;;;;;;30.60;3.97;;;;;;;5.61;74.36;102244.47;5088170;28;20044;-65
2022/01/30 02:52:36;;;;;;;44.85;5.85;;;;;;;5.60;74.81;102246.22;5081629;28;20051;-65
2022/01/30 02:55:04;;;;;;;31.60;4.55;;;;;;;5.64;75.69;102244.28;5089596;28;20037;-65
2022/01/30 02:57:31;;;;;;;26.60;4.25;;;;;;;5.61;75.49;102242.66;5081412;28;20040;-65
2022/01/30 02:59:58;;;;;;;27.45;3.92;;;;;;;5.47;75.36;102251.31;5088007;28;20036;-65
2022/01/30 03:02:25;;;;;;;40.58;4.97;;;;;;;5.51;76.40;102252.88;5089659;28;20098;-63
2022/01/30 03:04:51;;;;;;;40.28;4.55;;;;;;;5.46;75.36;102252.25;5086754;28;20117;-64
2022/01/30 03:07:18;;;;;;;43.95;5.88;;;;;;;5.49;75.34;102252.06;5081403;28;20080;-65
2022/01/30 03:09:53;;;;;;;42.13;6.40;;;;;;;5.47;75.96;102253.09;5088222;28;20048;-65
2022/01/30 03:12:22;;;;;;;34.00;7.18;;;;;;;5.50;75.97;102248.53;5087899;28;20043;-65
2022/01/30 03:14:50;;;;;;;43.53;8.02;;;;;;;5.42;76.38;102255.13;5089064;28;20041;-65
2022/01/30 03:17:17;;;;;;;54.83;10.30;;;;;;;5.64;75.54;102242.50;5089167;28;20044;-64
2022/01/30 03:19:44;;;;;;;44.92;11.95;;;;;;;5.57;75.42;102251.69;5088981;28;20040;-65
2022/01/30 03:22:12;;;;;;;46.28;10.18;;;;;;;5.59;75.22;102252.44;5087660;28;20036;-64
2022/01/30 03:24:39;;;;;;;34.28;8.80;;;;;;;5.48;76.05;102250.41;5089116;28;20032;-65
2022/01/30 03:27:17;;;;;;;33.00;7.25;;;;;;;5.55;75.70;102250.91;5076840;28;20127;-65
2022/01/30 03:30:01;;;;;;;37.40;7.40;;;;;;;5.58;74.91;102245.47;5075521;28;20054;-65
2022/01/30 03:32:48;;;;;;;35.92;7.28;;;;;;;5.54;75.27;102247.41;5072251;28;20100;-64
2022/01/30 03:35:15;;;;;;;32.28;6.35;;;;;;;5.32;75.33;102236.38;5073648;28;20048;-64
2022/01/30 03:37:42;;;;;;;39.38;5.55;;;;;;;5.35;75.99;102250.22;5073935;28;20204;-64
2022/01/30 03:40:09;;;;;;;46.70;7.63;;;;;;;5.52;75.70;102248.44;5074023;28;20087;-65
2022/01/30 03:42:36;;;;;;;36.25;6.57;;;;;;;5.58;74.68;102254.22;5073686;28;20139;-64
2022/01/30 03:45:04;;;;;;;36.40;7.55;;;;;;;5.53;74.50;102255.38;5075035;28;20496;-64
2022/01/30 03:47:31;;;;;;;27.27;5.03;;;;;;;5.52;74.97;102254.53;5074811;28;20480;-65
2022/01/30 03:49:59;;;;;;;35.00;5.13;;;;;;;5.49;74.79;102259.13;5073713;28;20037;-64
2022/01/30 03:52:26;;;;;;;35.40;4.47;;;;;;;5.62;74.84;102256.66;5073741;28;20043;-64
2022/01/30 03:54:52;;;;;;;36.55;5.97;;;;;;;5.49;75.39;102267.03;5075061;28;20060;-65
2022/01/30 03:57:19;;;;;;;35.22;4.50;;;;;;;5.54;75.21;102265.00;5075191;28;20048;-65
2022/01/30 03:59:46;;;;;;;24.00;4.25;;;;;;;5.61;74.94;102263.72;5074365;28;20048;-64
2022/01/30 04:02:12;;;;;;;36.67;4.45;;;;;;;5.70;74.36;102267.66;5057513;28;20550;-65
2022/01/30 04:04:39;;;;;;;38.00;4.57;;;;;;;5.55;74.38;102272.81;5075027;28;20075;-64
2022/01/30 04:07:06;;;;;;;40.25;4.47;;;;;;;5.49;75.40;102267.88;5055204;28;20040;-65
2022/01/30 04:09:53;;;;;;;27.58;4.43;;;;;;;5.63;75.27;102272.38;5066999;28;20044;-65
2022/01/30 04:12:29;;;;;;;28.50;4.15;;;;;;;5.48;75.28;102278.50;5074759;28;20468;-65
2022/01/30 04:15:04;;;;;;;28.85;4.05;;;;;;;5.44;75.71;102276.94;5074154;28;20049;-62
2022/01/30 04:17:51;;;;;;;32.40;4.93;;;;;;;5.51;75.37;102266.03;5052714;28;20052;-64
2022/01/30 04:20:31;;;;;;;40.33;6.10;;;;;;;5.42;75.69;102269.16;5074591;28;20477;-64
2022/01/30 04:23:18;;;;;;;33.92;4.25;;;;;;;5.42;76.40;102273.56;5074281;28;20497;-64
2022/01/30 04:26:05;;;;;;;36.25;4.95;;;;;;;5.53;75.59;102272.06;5068143;28;20040;-64
2022/01/30 04:28:52;;;;;;;35.95;5.00;;;;;;;5.42;75.01;102279.69;5067868;28;20489;-64
2022/01/30 04:31:39;;;;;;;28.73;3.78;;;;;;;5.33;76.33;102280.16;5073992;28;20067;-65
2022/01/30 04:34:27;;;;;;;40.42;5.00;;;;;;;5.25;75.95;102283.22;5071458;28;20132;-65
2022/01/30 04:37:23;;;;;;;32.58;4.70;;;;;;;5.30;75.35;102275.91;5073097;28;20055;-65
2022/01/30 05:01:11;;;;;;;31.52;4.47;;;;;;;5.22;75.63;102309.69;5073458;28;20044;-63
2022/01/30 05:04:15;;;;;;;31.10;4.45;;;;;;;5.11;76.28;102306.75;5073384;28;20071;-63
2022/01/30 05:09:41;;;;;;;34.50;4.75;;;;;;;4.90;77.34;102308.75;5097102;27;20398;-64
2022/01/30 05:12:22;;;;;;;33.50;4.50;;;;;;;4.81;77.73;102310.06;5083854;28;20059;-64
2022/01/30 05:15:10;;;;;;;29.70;4.45;;;;;;;4.88;77.83;102315.88;5090117;28;20050;-64
2022/01/30 05:17:47;;;;;;;44.67;4.25;;;;;;;4.72;78.06;102324.50;5088910;28;20036;-64
2022/01/30 05:20:29;;;;;;;33.42;4.10;;;;;;;4.82;78.38;102322.28;5084474;28;20058;-64
2022/01/30 05:23:07;;;;;;;30.88;3.78;;;;;;;4.85;78.22;102326.53;5082557;28;20118;-64
2022/01/30 05:25:37;;;;;;;29.25;4.70;;;;;;;4.92;77.76;102331.38;5090016;28;20043;-64
2022/01/30 05:28:08;;;;;;;33.78;4.28;;;;;;;4.92;78.52;102338.44;5088701;28;20120;-64
2022/01/30 05:30:40;;;;;;;33.15;4.22;;;;;;;5.04;77.76;102339.56;5089755;28;20396;-64
2022/01/30 05:33:26;;;;;;;23.52;3.95;;;;;;;5.18;77.06;102342.34;5086194;28;20036;-64
2022/01/30 05:36:04;;;;;;;30.23;4.22;;;;;;;4.89;77.85;102336.78;5082476;28;20124;-64
2022/01/30 05:38:51;;;;;;;29.77;4.10;;;;;;;4.97;77.78;102329.38;5089271;28;20045;-64
2022/01/30 05:41:38;;;;;;;36.60;4.13;;;;;;;5.04;77.86;102332.56;5086951;28;20052;-64
2022/01/30 05:44:39;;;;;;;34.95;4.20;;;;;;;4.91;78.78;102334.09;5088470;28;20044;-64
2022/01/30 05:47:32;;;;;;;28.60;3.90;;;;;;;5.02;78.18;102328.28;5088362;28;20438;-64
2022/01/30 05:50:12;;;;;;;33.55;4.30;;;;;;;5.24;76.61;102338.53;5089448;28;20094;-64
2022/01/30 05:52:59;;;;;;;25.88;3.83;;;;;;;5.08;77.02;102333.25;5122302;28;20493;-64
2022/01/30 05:55:32;;;;;;;32.42;3.80;;;;;;;5.04;76.93;102342.22;5072406;28;20093;-64
2022/01/30 05:57:59;;;;;;;29.58;4.35;;;;;;;5.17;76.37;102336.25;5089661;28;20041;-64
2022/01/30 06:00:43;;;;;;;31.08;4.68;;;;;;;5.10;76.59;102336.66;5082759;28;20056;-64
2022/01/30 06:03:10;;;;;;;39.25;3.90;;;;;;;5.07;76.20;102350.78;5087703;28;20070;-64
2022/01/30 06:05:38;;;;;;;25.75;3.63;;;;;;;4.90;76.57;102345.56;5082003;28;20178;-64
2022/01/30 06:08:39;;;;;;;25.83;3.85;;;;;;;4.82;76.69;102353.84;5081415;28;20071;-64
2022/01/30 06:10:52;;;;;;;29.17;5.20;;;;;;;4.73;77.33;102363.03;5088792;28;20062;-64
2022/01/30 06:13:18;;;;;;;30.55;3.72;;;;;;;4.90;76.69;102362.19;5087731;28;20052;-64
2022/01/30 06:15:45;;;;;;;24.30;3.58;;;;;;;4.89;76.30;102365.72;5087563;28;20047;-64
2022/01/30 06:18:18;;;;;;;37.63;4.15;;;;;;;4.79;76.96;102377.66;5081196;28;20119;-64
2022/01/30 06:21:04;;;;;;;27.63;3.83;;;;;;;4.90;75.94;102377.97;5074746;28;20048;-64
2022/01/30 06:23:51;;;;;;;29.80;4.03;;;;;;;4.93;75.86;102390.97;5074626;28;20124;-64
2022/01/30 06:26:38;;;;;;;27.05;3.28;;;;;;;4.87;76.23;102390.41;5075107;28;20053;-64
2022/01/30 06:29:24;;;;;;;33.45;4.78;;;;;;;4.78;77.09;102392.59;5069361;28;20041;-64
2022/01/30 06:32:11;;;;;;;31.77;4.07;;;;;;;4.87;75.83;102400.94;5067909;28;20399;-64
2022/01/30 06:34:58;;;;;;;27.50;3.47;;;;;;;4.92;75.26;102406.81;5071764;28;20385;-64
2022/01/30 06:37:45;;;;;;;35.58;4.70;;;;;;;4.96;75.43;102403.94;5042881;27;1197569;-64
2022/01/30 06:40:20;;;;;;;22.73;3.28;;;;;;;5.02;75.01;102409.81;5069883;28;20194;-64
2022/01/30 06:43:07;;;;;;;23.73;3.50;;;;;;;5.11;74.05;102410.22;5069501;28;20079;-65
2022/01/30 06:45:55;;;;;;;24.42;3.50;;;;;;;5.11;74.08;102410.22;5069484;28;20047;-65
2022/01/30 06:48:42;;;;;;;26.27;3.58;;;;;;;5.12;75.17;102417.19;5069162;28;20047;-65
2022/01/30 06:51:28;;;;;;;21.73;3.55;;;;;;;5.11;74.45;102415.50;5069373;28;20556;-65
2022/01/30 06:54:16;;;;;;;28.15;3.47;;;;;;;5.05;74.11;102420.19;5068285;28;20040;-65
2022/01/30 06:57:04;;;;;;;16.15;3.90;;;;;;;5.00;74.96;102421.28;5069185;28;20033;-64
2022/01/30 06:59:50;;;;;;;24.98;3.53;;;;;;;5.12;74.81;102429.50;5068727;28;20051;-65
2022/01/30 07:02:37;;;;;;;32.42;3.30;;;;;;;5.18;74.43;102432.69;5069178;28;20420;-65
2022/01/30 07:05:23;;;;;;;30.08;3.70;;;;;;;5.13;74.16;102436.44;5069028;28;20075;-64
2022/01/30 07:07:58;;;;;;;24.88;3.30;;;;;;;5.14;74.84;102432.91;5067528;28;20143;-64
2022/01/30 07:10:25;;;;;;;21.08;3.53;;;;;;;5.09;75.03;102433.09;5068851;28;20501;-65
2022/01/30 07:12:52;;;;;;;25.77;3.75;;;;;;;5.15;74.80;102443.34;5069164;28;20049;-65
2022/01/30 07:15:19;;;;;;;21.60;3.90;;;;;;;5.17;74.58;102441.47;5067581;28;20417;-64
2022/01/30 07:17:46;;;;;;;26.83;3.22;;;;;;;5.19;73.68;102442.25;5069133;28;20045;-64
2022/01/30 07:20:12;;;;;;;36.17;4.22;;;;;;;5.12;74.92;102445.28;5068601;28;20114;-64
2022/01/30 07:22:39;;;;;;;26.52;3.65;;;;;;;5.16;74.48;102450.28;5068532;28;20118;-64
2022/01/30 07:25:07;;;;;;;33.15;4.13;;;;;;;5.18;73.59;102450.22;5051223;28;20496;-65
2022/01/30 07:27:35;;;;;;;20.90;2.92;;;;;;;5.22;74.75;102453.53;5068721;28;20110;-64
2022/01/30 07:30:04;;;;;;;36.53;4.15;;;;;;;5.15;73.94;102453.03;5068523;28;20036;-65
2022/01/30 07:32:31;;;;;;;30.20;3.30;;;;;;;5.12;74.05;102459.28;5068508;28;20037;-65
2022/01/30 07:34:58;;;;;;;24.75;3.70;;;;;;;5.18;73.64;102450.22;5066702;28;20057;-65
2022/01/30 07:37:25;;;;;;;30.55;3.33;;;;;;;5.22;74.02;102458.81;5066648;28;20052;-65
2022/01/30 07:39:53;;;;;;;22.23;3.47;;;;;;;5.25;74.72;102456.03;5066906;28;20512;-65
2022/01/30 07:42:20;;;;;;;26.48;3.65;;;;;;;5.31;73.80;102453.06;5066721;28;20041;-64
2022/01/30 07:44:52;;;;;;;24.00;3.47;;;;;;;5.13;74.64;102454.84;5068448;28;20045;-64
2022/01/30 07:47:21;;;;;;;30.05;5.22;;;;;;;5.19;73.95;102455.41;5065088;28;20056;-65
2022/01/30 07:49:51;;;;;;;29.25;3.90;;;;;;;5.18;74.76;102452.84;5054799;28;20053;-64
2022/01/30 07:52:19;;;;;;;29.35;3.92;;;;;;;5.17;73.32;102472.22;5055093;28;20091;-64
2022/01/30 07:54:47;;;;;;;20.65;3.92;;;;;;;5.20;74.47;102474.66;5037455;28;20132;-64
2022/01/30 07:57:14;;;;;;;30.45;4.10;;;;;;;5.32;74.68;102475.84;5054696;28;20051;-64
2022/01/30 07:59:41;;;;;;;26.08;4.10;;;;;;;5.35;73.82;102467.81;5055019;28;20045;-65
2022/01/30 08:02:09;;;;;;;34.03;3.75;;;;;;;5.30;73.81;102460.13;5054642;28;20056;-65
2022/01/30 08:04:36;;;;;;;28.50;4.13;;;;;;;5.25;73.62;102470.03;5054723;28;20048;-64
2022/01/30 08:07:03;;;;;;;21.48;3.40;;;;;;;5.22;73.71;102480.72;5051994;28;20040;-65
2022/01/30 08:09:32;;;;;;;31.55;3.75;;;;;;;5.19;74.39;102475.63;5054401;28;20413;-64
2022/01/30 08:11:59;;;;;;;34.13;3.88;;;;;;;5.11;74.13;102480.38;5054644;28;20094;-64
2022/01/30 08:14:25;;;;;;;25.17;3.13;;;;;;;5.24;74.00;102483.25;5054567;28;20040;-64
2022/01/30 08:16:52;;;;;;;32.97;4.15;;;;;;;4.97;74.46;102488.97;5054397;28;20048;-64
2022/01/30 08:19:21;;;;;;;25.98;3.55;;;;;;;5.10;74.95;102492.69;5044904;28;20049;-64
2022/01/30 08:21:49;;;;;;;28.40;4.07;;;;;;;5.00;74.83;102491.44;5037083;28;20037;-64
2022/01/30 08:24:18;;;;;;;26.80;3.35;;;;;;;4.96;74.69;102495.16;5053873;28;20518;-64
2022/01/30 08:26:45;;;;;;;23.95;3.67;;;;;;;4.96;74.33;102493.38;5017713;28;20420;-64
2022/01/30 08:29:12;;;;;;;35.30;3.38;;;;;;;5.05;74.31;102505.22;5053741;28;20049;-64
2022/01/30 08:31:39;;;;;;;19.83;3.03;;;;;;;5.23;73.48;102506.09;5053492;28;20497;-64
2022/01/30 08:34:05;;;;;;;31.23;3.58;;;;;;;5.16;73.49;102513.44;5052988;28;20489;-64
2022/01/30 08:36:32;;;;;;;24.13;3.47;;;;;;;5.28;72.42;102516.41;5051193;28;20601;-64
2022/01/30 08:38:59;;;;;;;21.33;3.63;;;;;;;5.30;72.85;102504.88;5052388;28;20052;-64
2022/01/30 08:41:26;;;;;;;33.40;4.43;;;;;;;5.38;72.77;102507.97;5020065;28;20453;-64
2022/01/30 08:43:52;;;;;;;34.20;4.18;;;;;;;5.31;73.10;102506.59;5052407;28;20494;-64
2022/01/30 08:46:20;;;;;;;23.50;3.88;;;;;;;5.38;72.81;102502.72;5054249;28;20052;-64
2022/01/30 08:48:47;;;;;;;31.85;3.80;;;;;;;5.38;72.66;102507.97;5053918;28;20405;-64
2022/01/30 08:51:14;;;;;;;24.77;3.63;;;;;;;5.47;72.15;102498.75;5052307;28;20037;-64
2022/01/30 08:53:41;;;;;;;29.08;3.92;;;;;;;5.45;72.71;102503.25;5054027;28;20056;-64
2022/01/30 08:56:08;;;;;;;26.65;3.83;;;;;;;5.59;71.33;102502.56;5053418;28;20060;-64
2022/01/30 08:58:35;;;;;;;32.40;4.22;;;;;;;5.49;72.23;102499.50;5053441;28;20099;-64
2022/01/30 09:01:01;;;;;;;35.10;4.78;;;;;;;5.52;72.24;102495.91;5051091;28;20051;-64
2022/01/30 09:03:28;;;;;;;31.05;3.83;;;;;;;5.57;72.11;102507.03;5053961;28;20094;-64
2022/01/30 09:05:55;;;;;;;30.52;4.13;;;;;;;5.54;71.80;102521.19;5052079;28;20124;-64
2022/01/30 09:08:23;;;;;;;29.98;4.95;;;;;;;5.74;71.35;102517.53;5050559;28;20045;-64
2022/01/30 09:10:50;;;;;;;27.20;4.22;;;;;;;5.91;70.64;102515.81;5032365;28;20053;-64
2022/01/30 09:13:16;;;;;;;27.10;4.38;;;;;;;5.92;70.93;102518.38;5049275;28;20045;-64
2022/01/30 09:15:43;;;;;;;33.13;4.10;;;;;;;5.90;69.86;102522.03;5053613;28;20045;-64
2022/01/30 09:18:11;;;;;;;30.95;4.15;;;;;;;5.72;70.88;102527.31;5051821;28;20041;-64
2022/01/30 09:20:41;;;;;;;22.60;3.25;;;;;;;6.01;70.11;102524.97;5053305;28;20040;-64
2022/01/30 09:23:10;;;;;;;34.72;4.63;;;;;;;6.02;70.78;102526.69;5053120;28;20044;-64
2022/01/30 09:25:39;;;;;;;26.25;4.38;;;;;;;5.90;70.52;102524.66;5053344;28;20093;-63
2022/01/30 09:28:06;;;;;;;40.03;5.10;;;;;;;5.88;70.61;102522.09;5053205;28;20091;-64
2022/01/30 09:30:33;;;;;;;35.05;3.88;;;;;;;5.93;69.83;102527.13;5053037;28;20071;-64
2022/01/30 09:33:00;;;;;;;28.15;3.60;;;;;;;6.23;70.01;102529.97;5031830;28;20037;-64
2022/01/30 09:35:26;;;;;;;24.55;3.85;;;;;;;6.25;67.67;102516.72;5048928;28;20041;-64
2022/01/30 09:37:53;;;;;;;27.65;3.97;;;;;;;6.19;68.83;102519.69;5034799;28;20057;-64
2022/01/30 09:40:20;;;;;;;29.00;4.22;;;;;;;6.36;67.97;102521.41;5052981;28;20056;-64
2022/01/30 09:42:47;;;;;;;26.80;4.68;;;;;;;6.53;68.27;102518.69;5049640;28;20584;-64
2022/01/30 09:45:16;;;;;;;29.58;4.40;;;;;;;6.53;67.83;102518.69;5034408;28;20041;-64
2022/01/30 09:47:43;;;;;;;30.92;4.70;;;;;;;6.50;67.77;102508.31;5052743;28;20032;-64
2022/01/30 09:50:11;;;;;;;30.35;4.40;;;;;;;6.47;68.07;102508.47;5044977;28;20056;-64
2022/01/30 09:52:38;;;;;;;32.40;6.35;;;;;;;6.52;68.99;102498.53;5052548;28;20493;-64
2022/01/30 09:55:08;;;;;;;26.65;3.95;;;;;;;6.73;66.00;102504.38;5052572;28;20087;-64
2022/01/30 09:57:36;;;;;;;33.58;4.25;;;;;;;6.77;66.54;102495.41;5052409;28;20036;-64
2022/01/30 10:00:05;;;;;;;36.80;4.68;;;;;;;6.75;66.66;102496.41;5052383;28;20059;-64
2022/01/30 10:02:39;;;;;;;44.17;4.88;;;;;;;6.69;67.07;102492.31;5052929;28;20048;-64
2022/01/30 10:05:07;;;;;;;31.33;3.60;;;;;;;6.48;67.95;102494.38;5052630;28;20049;-64
2022/01/30 10:07:45;;;;;;;33.55;5.38;;;;;;;6.56;66.55;102501.84;5050767;28;20091;-64
2022/01/30 10:10:17;;;;;;;35.47;4.38;;;;;;;6.69;66.50;102497.59;5050800;28;20083;-64
2022/01/30 10:13:04;;;;;;;;;;;;;;;6.65;66.48;102499.56;5053006;28;20048;-64
2022/01/30 10:15:47;;;;;;;40.75;3.85;;;;;;;6.62;66.69;102504.16;5052184;28;19928;-64
2022/01/30 10:18:14;;;;;;;30.63;3.70;;;;;;;6.67;65.65;102507.38;5052550;28;20072;-64
2022/01/30 10:20:41;;;;;;;24.08;3.80;;;;;;;6.88;64.19;102518.53;5052487;28;20041;-65
2022/01/30 10:23:09;;;;;;;30.70;3.97;;;;;;;6.70;65.89;102513.34;5052231;28;20045;-64
2022/01/30 10:25:39;;;;;;;27.45;4.55;;;;;;;6.72;66.40;102521.16;5052324;28;20048;-64
2022/01/30 10:28:10;;;;;;;35.28;4.90;;;;;;;6.86;67.45;102518.63;5052023;28;20037;-65
2022/01/30 10:30:48;;;;;;;32.00;4.68;;;;;;;6.79;66.48;102521.69;5052072;28;20055;-64
2022/01/30 10:33:16;;;;;;;46.80;4.65;;;;;;;6.81;66.66;102514.53;5043598;28;20045;-64
2022/01/30 10:36:01;;;;;;;31.77;4.68;;;;;;;6.75;65.92;102522.78;5046448;28;20440;-64
2022/01/30 10:38:33;;;;;;;37.95;4.63;;;;;;;7.00;65.09;102509.91;5050483;28;20041;-64
2022/01/30 10:41:11;;;;;;;28.67;4.15;;;;;;;7.00;65.42;102517.81;5030620;28;20045;-64
2022/01/30 10:44:03;;;;;;;48.67;4.68;;;;;;;6.72;64.85;102514.09;5049163;28;20049;-64
2022/01/30 10:46:33;;;;;;;30.95;4.25;;;;;;;6.86;65.02;102510.69;5050297;28;20063;-64
2022/01/30 10:49:03;;;;;;;34.70;5.40;;;;;;;6.99;64.71;102510.00;5051884;28;20203;-65
2022/01/30 10:51:31;;;;;;;31.45;4.18;;;;;;;7.22;64.35;102506.91;5049953;28;20055;-64
2022/01/30 10:54:04;;;;;;;35.65;4.68;;;;;;;7.48;64.21;102500.06;5051533;28;20041;-64
2022/01/30 10:56:31;;;;;;;34.83;5.78;;;;;;;7.33;62.67;102501.00;5043802;28;20057;-64
2022/01/30 10:59:22;;;;;;;33.25;5.80;;;;;;;7.33;62.28;102506.28;5051373;28;20041;-64
2022/01/30 11:01:51;;;;;;;36.17;5.07;;;;;;;7.45;61.46;102504.69;5051286;28;20524;-64
2022/01/30 11:04:27;;;;;;;41.22;4.97;;;;;;;7.56;60.38;102512.81;5051616;28;20045;-64
2022/01/30 11:06:59;;;;;;;46.10;4.97;;;;;;;7.83;58.22;102499.75;5049831;28;20087;-64
2022/01/30 11:09:33;;;;;;;43.20;5.32;;;;;;;7.92;57.64;102510.72;5050237;28;20048;-64
2022/01/30 11:12:06;;;;;;;40.03;4.90;;;;;;;8.50;54.81;102516.84;5051314;28;20047;-64
2022/01/30 11:14:51;;;;;;;35.22;5.43;;;;;;;9.80;51.81;102515.31;5051431;28;20048;-64
2022/01/30 11:17:21;;;;;;;35.60;5.00;;;;;;;10.69;49.34;102522.31;5051452;28;20048;-64
2022/01/30 11:19:51;;;;;;;46.47;5.63;;;;;;;11.28;47.34;102518.88;5049769;28;20056;-65
2022/01/30 11:22:20;;;;;;;35.53;5.45;;;;;;;11.28;46.57;102515.38;5051429;28;20056;-64
2022/01/30 11:24:54;;;;;;;37.45;5.70;;;;;;;11.82;45.60;102509.44;5055174;28;20112;-65
2022/01/30 11:27:23;;;;;;;33.10;5.60;;;;;;;12.62;43.45;102510.28;5037304;28;20057;-64
2022/01/30 11:29:51;;;;;;;38.33;5.28;;;;;;;11.62;44.73;102507.50;5054537;28;20041;-65
2022/01/30 11:32:20;;;;;;;34.22;5.65;;;;;;;10.78;47.50;102512.84;5053327;28;20074;-64
2022/01/30 11:34:50;;;;;;;40.08;5.45;;;;;;;11.10;46.89;102499.84;5048500;28;20128;-64
2022/01/30 11:37:22;;;;;;;36.03;4.82;;;;;;;10.05;49.08;102497.72;5048714;28;20528;-64
2022/01/30 11:39:52;;;;;;;38.88;5.35;;;;;;;8.90;52.65;102499.25;5053295;28;20504;-64
2022/01/30 11:42:21;;;;;;;42.05;6.15;;;;;;;8.61;53.99;102486.13;5039931;28;20053;-64
2022/01/30 11:44:50;;;;;;;41.47;5.18;;;;;;;8.40;55.25;102474.22;5047321;28;20046;-65
2022/01/30 11:47:23;;;;;;;42.50;5.88;;;;;;;8.50;53.95;102480.66;5054292;28;20233;-64
2022/01/30 11:50:01;;;;;;;42.40;5.50;;;;;;;8.42;54.33;102470.59;5051728;28;20041;-64
2022/01/30 11:52:49;;;;;;;35.72;4.95;;;;;;;8.09;54.01;102473.50;5046676;28;20065;-64
2022/01/30 11:55:57;;;;;;;47.83;5.63;;;;;;;7.53;55.38;102481.34;5048576;28;20045;-64
2022/01/30 11:58:46;;;;;;;44.53;5.47;;;;;;;7.88;56.24;102481.81;5046682;28;20052;-64
2022/01/30 12:01:35;;;;;;;40.03;5.15;;;;;;;8.87;52.58;102482.72;5051063;28;20045;-64
2022/01/30 12:04:07;;;;;;;41.15;6.28;;;;;;;9.78;49.78;102482.78;5049421;28;20049;-64
2022/01/30 12:06:37;;;;;;;40.47;5.32;;;;;;;10.37;47.94;102482.22;5052712;28;20394;-64
2022/01/30 12:09:27;;;;;;;45.78;5.43;;;;;;;11.11;46.00;102474.13;5051188;28;20037;-64
2022/01/30 12:11:56;;;;;;;44.70;5.05;;;;;;;11.71;43.70;102465.13;5047072;28;20040;-64
2022/01/30 12:17:02;;;;;;;41.22;6.03;;;;;;;12.16;41.39;102480.25;5093502;27;20195;-65
2022/01/30 12:25:30;;;;;;;44.17;5.60;;;;;;;12.72;41.65;102475.81;5100007;27;20133;-62
2022/01/30 12:28:01;;;;;;;40.08;6.05;;;;;;;13.02;40.61;102478.59;5078106;28;20053;-62
2022/01/30 12:30:47;;;;;;;36.65;5.30;;;;;;;12.87;40.70;102472.69;5082005;28;20040;-62
2022/01/30 12:33:35;;;;;;;41.25;5.60;;;;;;;12.42;41.31;102469.31;5076757;28;20054;-62
2022/01/30 12:36:10;;;;;;;36.60;5.18;;;;;;;11.68;43.41;102460.03;5074011;28;20043;-62
2022/01/30 12:38:37;;;;;;;40.53;5.75;;;;;;;10.42;45.19;102471.25;5079047;28;20135;-62
2022/01/30 12:41:22;;;;;;;35.45;4.90;;;;;;;10.49;45.93;102464.53;5086500;28;20044;-62
2022/01/30 12:43:54;;;;;;;46.40;5.78;;;;;;;9.95;46.44;102463.03;5081707;28;20044;-62
2022/01/30 12:46:24;;;;;;;38.53;5.22;;;;;;;9.73;46.76;102463.69;5061867;28;20051;-61
2022/01/30 12:49:02;;;;;;;33.35;4.95;;;;;;;9.85;45.90;102459.34;5088213;28;20037;-61
2022/01/30 12:51:29;;;;;;;38.88;5.43;;;;;;;10.76;44.34;102465.19;5077531;28;20036;-61